sensor_id;sensor_type;location;lat;lon;timestamp;P1;durP1;ratioP1;P2;durP2;ratioP2
23376;SDS011;14353;46.070;13.222;2023-03-14T00:00:07;2.90;;;2.47;;
23376;SDS011;14353;46.070;13.222;2023-03-14T00:02:37;3.03;;;2.65;;
23376;SDS011;14353;46.070;13.222;2023-03-14T00:05:04;2.90;;;2.55;;
23376;SDS011;14353;46.070;13.222;2023-03-14T00:07:35;2.72;;;2.45;;
23376;SDS011;14353;46.070;13.222;2023-03-14T00:10:05;4.18;;;2.75;;
23376;SDS011;14353;46.070;13.222;2023-03-14T00:12:33;4.13;;;2.75;;
23376;SDS011;14353;46.070;13.222;2023-03-14T00:14:59;2.90;;;2.22;;
23376;SDS011;14353;46.070;13.222;2023-03-14T00:17:28;2.63;;;2.40;;
23376;SDS011;14353;46.070;13.222;2023-03-14T00:19:53;2.85;;;2.55;;
23376;SDS011;14353;46.070;13.222;2023-03-14T00:22:20;2.50;;;2.30;;
23376;SDS011;14353;46.070;13.222;2023-03-14T00:24:45;3.60;;;2.60;;
23376;SDS011;14353;46.070;13.222;2023-03-14T00:27:11;2.80;;;2.50;;
23376;SDS011;14353;46.070;13.222;2023-03-14T00:29:37;2.60;;;2.40;;
23376;SDS011;14353;46.070;13.222;2023-03-14T00:32:03;3.60;;;2.50;;
23376;SDS011;14353;46.070;13.222;2023-03-14T00:34:29;3.35;;;2.50;;
23376;SDS011;14353;46.070;13.222;2023-03-14T00:36:55;2.60;;;2.40;;
23376;SDS011;14353;46.070;13.222;2023-03-14T00:39:21;2.95;;;2.30;;
23376;SDS011;14353;46.070;13.222;2023-03-14T00:41:47;2.95;;;2.40;;
23376;SDS011;14353;46.070;13.222;2023-03-14T00:44:18;2.90;;;2.60;;
23376;SDS011;14353;46.070;13.222;2023-03-14T00:46:43;3.17;;;2.50;;
23376;SDS011;14353;46.070;13.222;2023-03-14T00:49:09;3.17;;;2.40;;
23376;SDS011;14353;46.070;13.222;2023-03-14T00:51:35;3.45;;;2.50;;
23376;SDS011;14353;46.070;13.222;2023-03-14T00:54:00;3.33;;;2.70;;
23376;SDS011;14353;46.070;13.222;2023-03-14T00:56:26;2.80;;;2.20;;
23376;SDS011;14353;46.070;13.222;2023-03-14T00:58:55;2.80;;;2.50;;
23376;SDS011;14353;46.070;13.222;2023-03-14T01:01:21;3.22;;;2.30;;
23376;SDS011;14353;46.070;13.222;2023-03-14T01:03:51;3.20;;;2.45;;
23376;SDS011;14353;46.070;13.222;2023-03-14T01:06:18;3.60;;;2.47;;
23376;SDS011;14353;46.070;13.222;2023-03-14T01:08:46;2.85;;;2.35;;
23376;SDS011;14353;46.070;13.222;2023-03-14T01:11:13;2.50;;;2.30;;
23376;SDS011;14353;46.070;13.222;2023-03-14T01:13:42;2.88;;;2.30;;
23376;SDS011;14353;46.070;13.222;2023-03-14T01:16:09;2.80;;;2.60;;
23376;SDS011;14353;46.070;13.222;2023-03-14T01:18:36;3.67;;;2.53;;
23376;SDS011;14353;46.070;13.222;2023-03-14T01:21:12;2.75;;;2.47;;
23376;SDS011;14353;46.070;13.222;2023-03-14T01:23:41;2.58;;;2.30;;
23376;SDS011;14353;46.070;13.222;2023-03-14T01:26:08;2.67;;;2.33;;
23376;SDS011;14353;46.070;13.222;2023-03-14T01:28:35;2.63;;;2.40;;
23376;SDS011;14353;46.070;13.222;2023-03-14T01:31:04;2.80;;;2.30;;
23376;SDS011;14353;46.070;13.222;2023-03-14T01:33:32;3.60;;;2.42;;
23376;SDS011;14353;46.070;13.222;2023-03-14T01:35:58;3.63;;;2.38;;
23376;SDS011;14353;46.070;13.222;2023-03-14T01:38:24;3.05;;;2.50;;
23376;SDS011;14353;46.070;13.222;2023-03-14T01:40:50;3.25;;;2.65;;
23376;SDS011;14353;46.070;13.222;2023-03-14T01:43:17;3.22;;;2.17;;
23376;SDS011;14353;46.070;13.222;2023-03-14T01:51:06;3.40;;;2.40;;
23376;SDS011;14353;46.070;13.222;2023-03-14T01:53:38;3.70;;;2.38;;
23376;SDS011;14353;46.070;13.222;2023-03-14T01:56:06;2.40;;;2.10;;
23376;SDS011;14353;46.070;13.222;2023-03-14T01:58:33;3.03;;;2.40;;
23376;SDS011;14353;46.070;13.222;2023-03-14T02:00:59;2.95;;;2.33;;
23376;SDS011;14353;46.070;13.222;2023-03-14T02:03:27;4.25;;;2.35;;
23376;SDS011;14353;46.070;13.222;2023-03-14T02:05:55;3.33;;;2.40;;
23376;SDS011;14353;46.070;13.222;2023-03-14T02:08:27;2.95;;;2.50;;
23376;SDS011;14353;46.070;13.222;2023-03-14T02:10:53;2.80;;;2.15;;
23376;SDS011;14353;46.070;13.222;2023-03-14T02:13:18;3.15;;;2.40;;
23376;SDS011;14353;46.070;13.222;2023-03-14T02:15:46;3.15;;;2.40;;
23376;SDS011;14353;46.070;13.222;2023-03-14T02:18:12;2.88;;;2.15;;
23376;SDS011;14353;46.070;13.222;2023-03-14T02:23:39;2.38;;;2.17;;
23376;SDS011;14353;46.070;13.222;2023-03-14T02:26:22;2.47;;;2.28;;
23376;SDS011;14353;46.070;13.222;2023-03-14T02:29:09;2.97;;;2.25;;
23376;SDS011;14353;46.070;13.222;2023-03-14T02:31:35;2.30;;;2.10;;
23376;SDS011;14353;46.070;13.222;2023-03-14T02:34:01;2.35;;;2.13;;
23376;SDS011;14353;46.070;13.222;2023-03-14T02:36:28;2.80;;;2.50;;
23376;SDS011;14353;46.070;13.222;2023-03-14T02:41:32;2.55;;;2.25;;
23376;SDS011;14353;46.070;13.222;2023-03-14T02:43:57;2.45;;;2.10;;
23376;SDS011;14353;46.070;13.222;2023-03-14T02:46:23;2.50;;;2.10;;
23376;SDS011;14353;46.070;13.222;2023-03-14T02:51:32;3.50;;;2.20;;
23376;SDS011;14353;46.070;13.222;2023-03-14T02:53:58;2.50;;;2.30;;
23376;SDS011;14353;46.070;13.222;2023-03-14T02:56:24;2.40;;;2.20;;
23376;SDS011;14353;46.070;13.222;2023-03-14T02:58:49;2.80;;;2.38;;
23376;SDS011;14353;46.070;13.222;2023-03-14T03:01:15;2.67;;;2.40;;
23376;SDS011;14353;46.070;13.222;2023-03-14T03:03:41;2.60;;;2.10;;
23376;SDS011;14353;46.070;13.222;2023-03-14T03:06:07;2.38;;;2.17;;
23376;SDS011;14353;46.070;13.222;2023-03-14T03:08:32;3.58;;;2.53;;
23376;SDS011;14353;46.070;13.222;2023-03-14T03:10:58;2.05;;;1.83;;
23376;SDS011;14353;46.070;13.222;2023-03-14T03:13:24;2.50;;;2.20;;
23376;SDS011;14353;46.070;13.222;2023-03-14T03:15:50;3.72;;;2.38;;
23376;SDS011;14353;46.070;13.222;2023-03-14T03:18:16;3.00;;;2.00;;
23376;SDS011;14353;46.070;13.222;2023-03-14T03:20:42;2.50;;;2.22;;
23376;SDS011;14353;46.070;13.222;2023-03-14T03:23:07;2.72;;;2.10;;
23376;SDS011;14353;46.070;13.222;2023-03-14T03:25:33;2.45;;;2.05;;
23376;SDS011;14353;46.070;13.222;2023-03-14T03:27:59;3.03;;;2.08;;
23376;SDS011;14353;46.070;13.222;2023-03-14T03:30:24;2.20;;;2.00;;
23376;SDS011;14353;46.070;13.222;2023-03-14T03:32:50;2.78;;;2.25;;
23376;SDS011;14353;46.070;13.222;2023-03-14T03:35:16;2.55;;;2.35;;
23376;SDS011;14353;46.070;13.222;2023-03-14T03:37:41;2.28;;;2.05;;
23376;SDS011;14353;46.070;13.222;2023-03-14T03:40:08;2.58;;;2.13;;
23376;SDS011;14353;46.070;13.222;2023-03-14T03:42:35;2.65;;;2.28;;
23376;SDS011;14353;46.070;13.222;2023-03-14T03:45:01;2.45;;;2.10;;
23376;SDS011;14353;46.070;13.222;2023-03-14T03:47:29;2.63;;;2.08;;
23376;SDS011;14353;46.070;13.222;2023-03-14T03:49:56;2.22;;;2.03;;
23376;SDS011;14353;46.070;13.222;2023-03-14T03:52:21;2.72;;;2.20;;
23376;SDS011;14353;46.070;13.222;2023-03-14T03:54:47;2.10;;;1.90;;
23376;SDS011;14353;46.070;13.222;2023-03-14T03:57:13;2.88;;;2.10;;
23376;SDS011;14353;46.070;13.222;2023-03-14T03:59:38;2.22;;;2.03;;
23376;SDS011;14353;46.070;13.222;2023-03-14T04:02:06;2.30;;;2.10;;
23376;SDS011;14353;46.070;13.222;2023-03-14T04:04:32;1.90;;;1.70;;
23376;SDS011;14353;46.070;13.222;2023-03-14T04:06:57;2.30;;;2.10;;
23376;SDS011;14353;46.070;13.222;2023-03-14T04:09:23;2.28;;;1.75;;
23376;SDS011;14353;46.070;13.222;2023-03-14T04:11:49;2.83;;;2.33;;
23376;SDS011;14353;46.070;13.222;2023-03-14T04:14:14;2.38;;;2.00;;
23376;SDS011;14353;46.070;13.222;2023-03-14T04:16:40;3.15;;;1.95;;
23376;SDS011;14353;46.070;13.222;2023-03-14T04:19:06;2.13;;;1.90;;
23376;SDS011;14353;46.070;13.222;2023-03-14T04:21:32;2.25;;;2.05;;
23376;SDS011;14353;46.070;13.222;2023-03-14T04:23:57;2.05;;;1.77;;
23376;SDS011;14353;46.070;13.222;2023-03-14T04:26:23;2.80;;;2.22;;
23376;SDS011;14353;46.070;13.222;2023-03-14T04:28:49;2.58;;;2.00;;
23376;SDS011;14353;46.070;13.222;2023-03-14T04:31:15;2.55;;;2.10;;
23376;SDS011;14353;46.070;13.222;2023-03-14T04:33:44;2.22;;;2.03;;
23376;SDS011;14353;46.070;13.222;2023-03-14T04:36:10;2.13;;;1.80;;
23376;SDS011;14353;46.070;13.222;2023-03-14T04:38:36;2.30;;;2.10;;
23376;SDS011;14353;46.070;13.222;2023-03-14T04:41:02;2.72;;;2.17;;
23376;SDS011;14353;46.070;13.222;2023-03-14T04:43:28;2.33;;;1.80;;
23376;SDS011;14353;46.070;13.222;2023-03-14T04:45:54;2.33;;;1.90;;
23376;SDS011;14353;46.070;13.222;2023-03-14T04:48:21;2.20;;;1.90;;
23376;SDS011;14353;46.070;13.222;2023-03-14T04:50:47;1.92;;;1.73;;
23376;SDS011;14353;46.070;13.222;2023-03-14T04:53:13;2.70;;;2.08;;
23376;SDS011;14353;46.070;13.222;2023-03-14T04:55:39;2.17;;;1.88;;
23376;SDS011;14353;46.070;13.222;2023-03-14T04:58:05;2.00;;;1.70;;
23376;SDS011;14353;46.070;13.222;2023-03-14T05:00:31;2.97;;;2.25;;
23376;SDS011;14353;46.070;13.222;2023-03-14T05:02:57;2.00;;;1.70;;
23376;SDS011;14353;46.070;13.222;2023-03-14T05:05:23;2.03;;;1.83;;
23376;SDS011;14353;46.070;13.222;2023-03-14T05:07:49;1.98;;;1.70;;
23376;SDS011;14353;46.070;13.222;2023-03-14T05:10:15;2.30;;;1.70;;
23376;SDS011;14353;46.070;13.222;2023-03-14T05:12:41;2.45;;;1.85;;
23376;SDS011;14353;46.070;13.222;2023-03-14T05:15:06;2.40;;;2.00;;
23376;SDS011;14353;46.070;13.222;2023-03-14T05:17:33;2.13;;;1.90;;
23376;SDS011;14353;46.070;13.222;2023-03-14T05:19:59;2.17;;;1.95;;
23376;SDS011;14353;46.070;13.222;2023-03-14T05:22:25;2.22;;;1.70;;
23376;SDS011;14353;46.070;13.222;2023-03-14T05:24:50;2.08;;;1.88;;
23376;SDS011;14353;46.070;13.222;2023-03-14T05:27:18;1.70;;;1.60;;
23376;SDS011;14353;46.070;13.222;2023-03-14T05:29:44;2.40;;;2.05;;
23376;SDS011;14353;46.070;13.222;2023-03-14T05:32:09;2.92;;;2.00;;
23376;SDS011;14353;46.070;13.222;2023-03-14T05:34:35;1.90;;;1.80;;
23376;SDS011;14353;46.070;13.222;2023-03-14T05:37:00;2.13;;;1.80;;
23376;SDS011;14353;46.070;13.222;2023-03-14T05:39:26;1.95;;;1.75;;
23376;SDS011;14353;46.070;13.222;2023-03-14T05:41:52;2.70;;;1.90;;
23376;SDS011;14353;46.070;13.222;2023-03-14T05:44:20;2.40;;;1.77;;
23376;SDS011;14353;46.070;13.222;2023-03-14T05:46:46;2.00;;;1.80;;
23376;SDS011;14353;46.070;13.222;2023-03-14T05:49:12;2.08;;;1.65;;
23376;SDS011;14353;46.070;13.222;2023-03-14T05:51:38;2.75;;;1.92;;
23376;SDS011;14353;46.070;13.222;2023-03-14T05:54:03;3.03;;;1.90;;
23376;SDS011;14353;46.070;13.222;2023-03-14T05:56:29;1.77;;;1.60;;
23376;SDS011;14353;46.070;13.222;2023-03-14T05:58:55;2.15;;;1.80;;
23376;SDS011;14353;46.070;13.222;2023-03-14T06:01:20;2.33;;;1.98;;
23376;SDS011;14353;46.070;13.222;2023-03-14T06:03:46;1.90;;;1.70;;
23376;SDS011;14353;46.070;13.222;2023-03-14T06:06:12;2.38;;;1.60;;
23376;SDS011;14353;46.070;13.222;2023-03-14T06:08:37;2.17;;;1.70;;
23376;SDS011;14353;46.070;13.222;2023-03-14T06:11:03;2.40;;;1.70;;
23376;SDS011;14353;46.070;13.222;2023-03-14T06:13:29;2.00;;;1.80;;
23376;SDS011;14353;46.070;13.222;2023-03-14T06:15:55;1.67;;;1.58;;
23376;SDS011;14353;46.070;13.222;2023-03-14T06:18:21;2.22;;;1.77;;
23376;SDS011;14353;46.070;13.222;2023-03-14T06:20:46;2.20;;;1.80;;
23376;SDS011;14353;46.070;13.222;2023-03-14T06:23:12;2.13;;;1.63;;
23376;SDS011;14353;46.070;13.222;2023-03-14T06:25:38;2.13;;;1.90;;
23376;SDS011;14353;46.070;13.222;2023-03-14T06:28:04;2.33;;;1.67;;
23376;SDS011;14353;46.070;13.222;2023-03-14T06:30:29;2.58;;;1.85;;
23376;SDS011;14353;46.070;13.222;2023-03-14T06:32:55;1.90;;;1.60;;
23376;SDS011;14353;46.070;13.222;2023-03-14T06:35:21;2.15;;;1.80;;
23376;SDS011;14353;46.070;13.222;2023-03-14T06:37:48;3.03;;;1.90;;
23376;SDS011;14353;46.070;13.222;2023-03-14T06:40:14;2.70;;;2.00;;
23376;SDS011;14353;46.070;13.222;2023-03-14T06:42:43;2.33;;;1.83;;
23376;SDS011;14353;46.070;13.222;2023-03-14T06:45:09;2.88;;;2.00;;
23376;SDS011;14353;46.070;13.222;2023-03-14T06:47:35;3.35;;;2.08;;
23376;SDS011;14353;46.070;13.222;2023-03-14T06:50:03;7.65;;;2.03;;
23376;SDS011;14353;46.070;13.222;2023-03-14T06:52:29;8.48;;;2.47;;
23376;SDS011;14353;46.070;13.222;2023-03-14T06:54:55;5.60;;;2.03;;
23376;SDS011;14353;46.070;13.222;2023-03-14T06:57:21;7.25;;;2.35;;
23376;SDS011;14353;46.070;13.222;2023-03-14T06:59:46;4.55;;;2.22;;
23376;SDS011;14353;46.070;13.222;2023-03-14T07:02:12;9.10;;;2.65;;
23376;SDS011;14353;46.070;13.222;2023-03-14T07:04:38;4.95;;;2.13;;
23376;SDS011;14353;46.070;13.222;2023-03-14T07:07:04;5.45;;;2.28;;
23376;SDS011;14353;46.070;13.222;2023-03-14T07:09:31;5.22;;;2.20;;
23376;SDS011;14353;46.070;13.222;2023-03-14T07:11:59;6.95;;;2.50;;
23376;SDS011;14353;46.070;13.222;2023-03-14T07:14:25;7.13;;;2.60;;
23376;SDS011;14353;46.070;13.222;2023-03-14T07:16:52;6.65;;;2.00;;
23376;SDS011;14353;46.070;13.222;2023-03-14T07:19:18;10.05;;;2.30;;
23376;SDS011;14353;46.070;13.222;2023-03-14T07:21:44;10.05;;;2.50;;
23376;SDS011;14353;46.070;13.222;2023-03-14T07:24:10;8.80;;;2.47;;
23376;SDS011;14353;46.070;13.222;2023-03-14T07:26:36;3.13;;;2.08;;
23376;SDS011;14353;46.070;13.222;2023-03-14T07:29:01;9.10;;;2.30;;
23376;SDS011;14353;46.070;13.222;2023-03-14T07:31:30;5.32;;;2.20;;
23376;SDS011;14353;46.070;13.222;2023-03-14T07:33:56;7.88;;;2.42;;
23376;SDS011;14353;46.070;13.222;2023-03-14T07:36:22;4.63;;;2.10;;
23376;SDS011;14353;46.070;13.222;2023-03-14T07:38:48;6.22;;;2.05;;
23376;SDS011;14353;46.070;13.222;2023-03-14T07:41:13;5.55;;;2.30;;
23376;SDS011;14353;46.070;13.222;2023-03-14T07:43:39;5.93;;;1.90;;
23376;SDS011;14353;46.070;13.222;2023-03-14T07:46:05;6.68;;;2.40;;
23376;SDS011;14353;46.070;13.222;2023-03-14T07:48:31;6.03;;;2.13;;
23376;SDS011;14353;46.070;13.222;2023-03-14T07:50:58;3.13;;;1.98;;
23376;SDS011;14353;46.070;13.222;2023-03-14T07:53:24;3.60;;;2.10;;
23376;SDS011;14353;46.070;13.222;2023-03-14T07:55:50;4.90;;;2.10;;
23376;SDS011;14353;46.070;13.222;2023-03-14T07:58:17;7.68;;;2.20;;
23376;SDS011;14353;46.070;13.222;2023-03-14T08:00:43;5.75;;;1.90;;
23376;SDS011;14353;46.070;13.222;2023-03-14T08:03:09;6.32;;;2.08;;
23376;SDS011;14353;46.070;13.222;2023-03-14T08:05:36;6.13;;;2.28;;
23376;SDS011;14353;46.070;13.222;2023-03-14T08:08:02;4.80;;;2.15;;
23376;SDS011;14353;46.070;13.222;2023-03-14T08:10:29;3.92;;;2.10;;
23376;SDS011;14353;46.070;13.222;2023-03-14T08:12:56;3.42;;;1.90;;
23376;SDS011;14353;46.070;13.222;2023-03-14T08:15:23;2.55;;;1.80;;
23376;SDS011;14353;46.070;13.222;2023-03-14T08:17:49;4.60;;;2.22;;
23376;SDS011;14353;46.070;13.222;2023-03-14T08:20:23;5.93;;;2.03;;
23376;SDS011;14353;46.070;13.222;2023-03-14T08:22:51;4.78;;;1.90;;
23376;SDS011;14353;46.070;13.222;2023-03-14T08:25:20;4.80;;;2.20;;
23376;SDS011;14353;46.070;13.222;2023-03-14T08:27:45;14.35;;;3.10;;
23376;SDS011;14353;46.070;13.222;2023-03-14T08:30:12;9.57;;;3.10;;
23376;SDS011;14353;46.070;13.222;2023-03-14T08:32:39;7.35;;;2.85;;
23376;SDS011;14353;46.070;13.222;2023-03-14T08:35:06;10.20;;;2.80;;
23376;SDS011;14353;46.070;13.222;2023-03-14T08:37:33;11.55;;;2.80;;
23376;SDS011;14353;46.070;13.222;2023-03-14T08:40:00;6.70;;;2.70;;
23376;SDS011;14353;46.070;13.222;2023-03-14T08:42:26;10.40;;;2.95;;
23376;SDS011;14353;46.070;13.222;2023-03-14T08:44:52;9.68;;;3.10;;
23376;SDS011;14353;46.070;13.222;2023-03-14T08:47:18;9.55;;;3.15;;
23376;SDS011;14353;46.070;13.222;2023-03-14T08:49:44;7.68;;;2.78;;
23376;SDS011;14353;46.070;13.222;2023-03-14T08:52:10;9.32;;;2.95;;
23376;SDS011;14353;46.070;13.222;2023-03-14T08:54:36;9.35;;;3.40;;
23376;SDS011;14353;46.070;13.222;2023-03-14T08:57:02;9.55;;;2.80;;
23376;SDS011;14353;46.070;13.222;2023-03-14T08:59:28;6.63;;;2.83;;
23376;SDS011;14353;46.070;13.222;2023-03-14T09:01:53;9.20;;;2.67;;
23376;SDS011;14353;46.070;13.222;2023-03-14T09:04:19;6.80;;;2.92;;
23376;SDS011;14353;46.070;13.222;2023-03-14T09:06:46;7.45;;;2.70;;
23376;SDS011;14353;46.070;13.222;2023-03-14T09:09:11;9.43;;;2.90;;
23376;SDS011;14353;46.070;13.222;2023-03-14T09:11:38;12.77;;;3.10;;
